Time,TemperatureF,DewpointF,PressureIn,WindDirection,WindDirectionDegrees,WindSpeedMPH,WindSpeedGustMPH,Humidity,HourlyPrecipIn,Conditions,Clouds,dailyrainin,SoftwareType,DateUTC
2013-03-04 00:12:00,23.6,19.0,30.07,SSE,165,0.0,0.0,82,0.00,,,0.00,weatherlink.com 1.10,2013-03-04 08:12:00,
2013-03-04 00:27:00,23.2,19.0,30.07,SSE,165,0.0,0.0,83,0.00,,,0.00,weatherlink.com 1.10,2013-03-04 08:27:00,
2013-03-04 00:42:00,22.7,18.0,30.07,SSE,165,0.0,0.0,83,0.00,,,0.00,weatherlink.com 1.10,2013-03-04 08:42:00,
2013-03-04 00:57:00,22.4,18.0,30.07,SSE,165,0.0,0.0,83,0.00,,,0.00,weatherlink.com 1.10,2013-03-04 08:57:00,
2013-03-04 01:12:00,22.0,18.0,30.07,SSE,165,0.0,0.0,84,0.00,,,0.00,weatherlink.com 1.10,2013-03-04 09:12:00,
2013-03-04 01:27:00,21.6,18.0,30.07,SSE,165,0.0,0.0,85,0.00,,,0.00,weatherlink.com 1.10,2013-03-04 09:27:00,
2013-03-04 01:42:00,21.1,18.0,30.07,SSE,165,0.0,0.0,86,0.00,,,0.00,weatherlink.com 1.10,2013-03-04 09:42:00,
2013-03-04 01:57:00,20.9,18.0,30.07,SSE,165,0.0,0.0,87,0.00,,,0.00,weatherlink.com 1.10,2013-03-04 09:57:00,
2013-03-04 02:12:00,20.5,18.0,30.07,SSE,165,0.0,0.0,88,0.00,,,0.00,weatherlink.com 1.10,2013-03-04 10:12:00,
2013-03-04 02:27:00,20.3,17.0,30.07,SSE,165,0.0,0.0,88,0.00,,,0.00,weatherlink.com 1.10,2013-03-04 10:27:00,
2013-03-04 02:42:00,19.9,17.0,30.07,SSE,165,0.0,0.0,88,0.00,,,0.00,weatherlink.com 1.10,2013-03-04 10:42:00,
2013-03-04 02:57:00,19.6,17.0,30.07,SSE,165,0.0,0.0,89,0.00,,,0.00,weatherlink.com 1.10,2013-03-04 10:57:00,
2013-03-04 03:12:00,19.3,17.0,30.07,SSE,165,0.0,0.0,90,0.00,,,0.00,weatherlink.com 1.10,2013-03-04 11:12:00,
2013-03-04 03:27:00,19.2,17.0,30.06,SSE,165,0.0,0.0,90,0.00,,,0.00,weatherlink.com 1.10,2013-03-04 11:27:00,
2013-03-04 03:42:00,18.7,16.0,30.06,SSE,165,0.0,0.0,90,0.00,,,0.00,weatherlink.com 1.10,2013-03-04 11:42:00,
2013-03-04 03:57:00,18.5,16.0,30.05,SSE,165,0.0,0.0,90,0.00,,,0.00,weatherlink.com 1.10,2013-03-04 11:57:00,
2013-03-04 04:12:00,18.4,16.0,30.05,SSE,165,0.0,0.0,91,0.00,,,0.00,weatherlink.com 1.10,2013-03-04 12:12:00,
2013-03-04 04:27:00,18.2,16.0,30.05,SSE,165,0.0,0.0,91,0.00,,,0.00,weatherlink.com 1.10,2013-03-04 12:27:00,
2013-03-04 04:42:00,17.8,16.0,30.06,SSE,165,0.0,0.0,91,0.00,,,0.00,weatherlink.com 1.10,2013-03-04 12:42:00,
2013-03-04 04:58:00,17.5,15.0,30.06,SSE,165,0.0,0.0,90,0.00,,,0.00,weatherlink.com 1.10,2013-03-04 12:58:00,
2013-03-04 05:13:00,17.3,15.0,30.06,SSE,165,0.0,0.0,91,0.00,,,0.00,weatherlink.com 1.10,2013-03-04 13:13:00,
2013-03-04 05:28:00,17.0,15.0,30.05,SSE,165,0.0,0.0,91,0.00,,,0.00,weatherlink.com 1.10,2013-03-04 13:28:00,
2013-03-04 05:43:00,16.7,15.0,30.06,SSE,165,0.0,0.0,91,0.00,,,0.00,weatherlink.com 1.10,2013-03-04 13:43:00,
2013-03-04 05:58:00,16.5,14.0,30.06,SSE,165,0.0,0.0,91,0.00,,,0.00,weatherlink.com 1.10,2013-03-04 13:58:00,
2013-03-04 06:13:00,16.4,14.0,30.06,SSE,165,0.0,1.0,91,0.00,,,0.00,weatherlink.com 1.10,2013-03-04 14:13:00,
2013-03-04 06:28:00,16.2,14.0,30.06,SSE,165,0.0,0.0,91,0.00,,,0.00,weatherlink.com 1.10,2013-03-04 14:28:00,
2013-03-04 06:43:00,16.0,14.0,30.06,SSE,165,0.0,0.0,91,0.00,,,0.00,weatherlink.com 1.10,2013-03-04 14:43:00,
2013-03-04 06:58:00,16.2,14.0,30.05,SSE,165,0.0,0.0,91,0.00,,,0.00,weatherlink.com 1.10,2013-03-04 14:58:00,
2013-03-04 07:13:00,17.1,15.0,30.05,SSE,165,0.0,1.0,92,0.00,,,0.00,weatherlink.com 1.10,2013-03-04 15:13:00,
2013-03-04 07:28:00,18.6,17.0,30.05,South,170,0.0,2.0,92,0.00,,,0.00,weatherlink.com 1.10,2013-03-04 15:28:00,
2013-03-04 07:44:00,19.4,17.0,30.05,SSE,148,0.0,1.0,91,0.00,,,0.00,weatherlink.com 1.10,2013-03-04 15:44:00,
2013-03-04 07:58:00,20.8,18.0,30.05,SSE,150,1.0,1.0,90,0.00,,,0.00,weatherlink.com 1.10,2013-03-04 15:58:00,
2013-03-04 08:13:00,23.5,20.0,30.05,SSE,163,1.0,2.0,85,0.00,,,0.00,weatherlink.com 1.10,2013-03-04 16:13:00,
2013-03-04 08:28:00,25.3,21.0,30.05,SSE,157,0.0,1.0,82,0.00,,,0.00,weatherlink.com 1.10,2013-03-04 16:28:00,
2013-03-04 08:58:00,27.8,20.0,30.04,ESE,105,0.0,3.0,73,0.00,,,0.00,weatherlink.com 1.10,2013-03-04 16:58:00,
2013-03-04 09:13:00,29.6,21.0,30.04,ESE,118,2.0,2.0,69,0.00,,,0.00,weatherlink.com 1.10,2013-03-04 17:13:00,
2013-03-04 09:28:00,30.6,20.0,30.04,ENE,67,1.0,3.0,66,0.00,,,0.00,weatherlink.com 1.10,2013-03-04 17:28:00,
2013-03-04 09:43:00,31.3,19.0,30.03,South,173,0.0,4.0,61,0.00,,,0.00,weatherlink.com 1.10,2013-03-04 17:43:00,
2013-03-04 09:58:00,32.4,18.0,30.03,East,90,1.0,4.0,56,0.00,,,0.00,weatherlink.com 1.10,2013-03-04 17:58:00,
2013-03-04 10:13:00,33.0,20.0,30.02,ESE,120,0.0,2.0,58,0.00,,,0.00,weatherlink.com 1.10,2013-03-04 18:13:00,
2013-03-04 10:28:00,34.1,18.0,30.02,SW,217,2.0,7.0,52,0.00,,,0.00,weatherlink.com 1.10,2013-03-04 18:28:00,
2013-03-04 10:43:00,36.1,18.0,30.02,East,80,2.0,3.0,49,0.00,,,0.00,weatherlink.com 1.10,2013-03-04 18:43:00,
2013-03-04 10:58:00,36.5,19.0,30.01,NE,51,2.0,5.0,49,0.00,,,0.00,weatherlink.com 1.10,2013-03-04 18:58:00,
2013-03-04 11:14:00,37.2,18.0,30.00,NNE,27,3.0,6.0,47,0.00,,,0.00,weatherlink.com 1.10,2013-03-04 19:14:00,
2013-03-04 11:29:00,38.2,20.0,30.00,SSE,150,1.0,5.0,48,0.00,,,0.00,weatherlink.com 1.10,2013-03-04 19:29:00,
2013-03-04 11:44:00,39.3,19.0,29.99,SSE,155,1.0,5.0,44,0.00,,,0.00,weatherlink.com 1.10,2013-03-04 19:44:00,
2013-03-04 11:59:00,40.4,20.0,29.99,SSE,162,1.0,3.0,44,0.00,,,0.00,weatherlink.com 1.10,2013-03-04 19:59:00,
2013-03-04 12:14:00,41.6,19.0,29.98,East,86,2.0,5.0,41,0.00,,,0.00,weatherlink.com 1.10,2013-03-04 20:14:00,
2013-03-04 12:29:00,43.2,19.0,29.97,SE,137,0.0,7.0,38,0.00,,,0.00,weatherlink.com 1.10,2013-03-04 20:29:00,
2013-03-04 12:44:00,43.6,18.0,29.97,East,79,0.0,6.0,36,0.00,,,0.00,weatherlink.com 1.10,2013-03-04 20:44:00,
2013-03-04 12:59:00,45.0,19.0,29.96,NE,41,1.0,5.0,36,0.00,,,0.00,weatherlink.com 1.10,2013-03-04 20:59:00,
2013-03-04 13:14:00,45.3,18.0,29.95,NE,37,2.0,11.0,34,0.00,,,0.00,weatherlink.com 1.10,2013-03-04 21:14:00,
2013-03-04 13:29:00,46.1,20.0,29.95,NNW,345,5.0,5.0,36,0.00,,,0.00,weatherlink.com 1.10,2013-03-04 21:29:00,
2013-03-04 13:44:00,46.0,19.0,29.94,ESE,102,2.0,6.0,34,0.00,,,0.00,weatherlink.com 1.10,2013-03-04 21:44:00,
2013-03-04 13:59:00,47.0,20.0,29.94,North,355,2.0,5.0,35,0.00,,,0.00,weatherlink.com 1.10,2013-03-04 21:59:00,
2013-03-04 14:14:00,47.1,21.0,29.93,East,93,1.0,6.0,35,0.00,,,0.00,weatherlink.com 1.10,2013-03-04 22:14:00,
2013-03-04 14:29:00,47.5,21.0,29.93,NE,34,3.0,4.0,35,0.00,,,0.00,weatherlink.com 1.10,2013-03-04 22:29:00,
2013-03-04 14:44:00,48.2,20.0,29.93,WSW,243,3.0,5.0,33,0.00,,,0.00,weatherlink.com 1.10,2013-03-04 22:44:00,
2013-03-04 14:59:00,48.8,20.0,29.93,ESE,116,1.0,3.0,32,0.00,,,0.00,weatherlink.com 1.10,2013-03-04 22:59:00,
2013-03-04 15:14:00,49.8,21.0,29.92,SE,137,0.0,3.0,32,0.00,,,0.00,weatherlink.com 1.10,2013-03-04 23:14:00,
2013-03-04 15:29:00,50.6,22.0,29.92,SE,145,0.0,3.0,33,0.00,,,0.00,weatherlink.com 1.10,2013-03-04 23:29:00,
2013-03-04 15:45:00,50.9,21.0,29.91,SE,126,0.0,3.0,31,0.00,,,0.00,weatherlink.com 1.10,2013-03-04 23:45:00,
2013-03-04 16:00:00,50.1,20.0,29.90,ESE,118,0.0,3.0,31,0.00,,,0.00,weatherlink.com 1.10,2013-03-05 00:00:00,
2013-03-04 16:15:00,49.3,21.0,29.89,SE,142,0.0,3.0,33,0.00,,,0.00,weatherlink.com 1.10,2013-03-05 00:15:00,
2013-03-04 16:30:00,48.6,21.0,29.90,SE,134,0.0,2.0,34,0.00,,,0.00,weatherlink.com 1.10,2013-03-05 00:30:00,
2013-03-04 16:45:00,48.2,23.0,29.89,SSE,152,1.0,2.0,37,0.00,,,0.00,weatherlink.com 1.10,2013-03-05 00:45:00,
2013-03-04 17:00:00,46.7,23.0,29.89,SE,142,0.0,1.0,39,0.00,,,0.00,weatherlink.com 1.10,2013-03-05 01:00:00,
2013-03-04 17:15:00,45.6,24.0,29.89,SE,142,0.0,1.0,42,0.00,,,0.00,weatherlink.com 1.10,2013-03-05 01:15:00,
2013-03-04 17:30:00,43.0,25.0,29.89,SSE,157,0.0,1.0,50,0.00,,,0.00,weatherlink.com 1.10,2013-03-05 01:30:00,
2013-03-04 17:45:00,40.9,24.0,29.89,SSE,156,0.0,1.0,52,0.00,,,0.00,weatherlink.com 1.10,2013-03-05 01:45:00,
2013-03-04 18:00:00,39.4,23.0,29.89,SSE,156,0.0,1.0,53,0.00,,,0.00,weatherlink.com 1.10,2013-03-05 02:00:00,
2013-03-04 18:15:00,38.1,25.0,29.89,SSE,156,0.0,1.0,59,0.00,,,0.00,weatherlink.com 1.10,2013-03-05 02:15:00,
2013-03-04 18:30:00,36.6,25.0,29.89,SSE,156,0.0,0.0,62,0.00,,,0.00,weatherlink.com 1.10,2013-03-05 02:30:00,
2013-03-04 18:45:00,35.5,25.0,29.90,SSE,156,0.0,0.0,65,0.00,,,0.00,weatherlink.com 1.10,2013-03-05 02:45:00,
2013-03-04 19:00:00,33.8,23.0,29.89,SSE,157,0.0,0.0,64,0.00,,,0.00,weatherlink.com 1.10,2013-03-05 03:00:00,
2013-03-04 19:15:00,32.4,23.0,29.89,SSE,156,0.0,0.0,67,0.00,,,0.00,weatherlink.com 1.10,2013-03-05 03:15:00,
2013-03-04 19:30:00,31.5,22.0,29.89,SSE,156,0.0,0.0,69,0.00,,,0.00,weatherlink.com 1.10,2013-03-05 03:30:00,
2013-03-04 19:45:00,30.7,23.0,29.89,SSE,156,0.0,0.0,72,0.00,,,0.00,weatherlink.com 1.10,2013-03-05 03:45:00,
2013-03-04 20:00:00,30.0,23.0,29.89,SSE,157,0.0,0.0,74,0.00,,,0.00,weatherlink.com 1.10,2013-03-05 04:00:00,
2013-03-04 20:15:00,29.4,23.0,29.89,SSE,156,0.0,0.0,76,0.00,,,0.00,weatherlink.com 1.10,2013-03-05 04:15:00,
2013-03-04 20:30:00,29.0,23.0,29.89,SSE,156,0.0,0.0,77,0.00,,,0.00,weatherlink.com 1.10,2013-03-05 04:30:00,
2013-03-04 20:45:00,28.5,22.0,29.88,SSE,157,0.0,1.0,78,0.00,,,0.00,weatherlink.com 1.10,2013-03-05 04:45:00,
2013-03-04 21:00:00,28.1,22.0,29.88,SSE,156,0.0,0.0,78,0.00,,,0.00,weatherlink.com 1.10,2013-03-05 05:00:00,
2013-03-04 21:15:00,27.9,22.0,29.88,SSE,156,0.0,0.0,79,0.00,,,0.00,weatherlink.com 1.10,2013-03-05 05:15:00,
2013-03-04 21:30:00,27.8,22.0,29.88,SSE,157,0.0,0.0,79,0.00,,,0.00,weatherlink.com 1.10,2013-03-05 05:30:00,
2013-03-04 21:45:00,27.5,22.0,29.88,SSE,156,0.0,0.0,79,0.00,,,0.00,weatherlink.com 1.10,2013-03-05 05:45:00,
2013-03-04 22:00:00,27.3,22.0,29.88,SSE,156,0.0,0.0,79,0.00,,,0.00,weatherlink.com 1.10,2013-03-05 06:00:00,
2013-03-04 22:15:00,27.1,22.0,29.87,SSE,157,0.0,0.0,81,0.00,,,0.00,weatherlink.com 1.10,2013-03-05 06:15:00,
2013-03-04 22:30:00,27.0,22.0,29.87,SSE,156,0.0,0.0,82,0.00,,,0.00,weatherlink.com 1.10,2013-03-05 06:30:00,
2013-03-04 22:45:00,27.1,22.0,29.88,SSE,157,0.0,0.0,82,0.00,,,0.00,weatherlink.com 1.10,2013-03-05 06:45:00,
2013-03-04 23:00:00,27.1,22.0,29.87,SSE,157,0.0,0.0,82,0.00,,,0.00,weatherlink.com 1.10,2013-03-05 07:00:00,
2013-03-04 23:15:00,27.3,23.0,29.86,SSE,156,0.0,0.0,82,0.00,,,0.00,weatherlink.com 1.10,2013-03-05 07:15:00,
2013-03-04 23:30:00,27.0,23.0,29.86,SSE,157,0.0,0.0,83,0.00,,,0.00,weatherlink.com 1.10,2013-03-05 07:30:00,
2013-03-04 23:45:00,26.9,23.0,29.86,SSE,157,0.0,0.0,84,0.00,,,0.00,weatherlink.com 1.10,2013-03-05 07:45:00,